KFPR/FPR METAR and TAF weather

Enter ICAO airport designator
Station Type Date Time Source
KFPR METAR 2022/10/01 07:53 UTC NOAA

KFPR 010753Z AUTO 00000KT 10SM CLR A2980 RMK AO2 SLP092 $


Station Type Date Time Source
KFPR Decoded METAR 2022/10/01 07:53 UTC NOAA

FORT PIERCE ST LUCIE, FL, United States (KFPR) 27-30N 080-23W 13M
Oct 01, 2022 - 03:53 AM EDT / 2022.10.01 0753 UTC
Wind: Calm:0
Visibility: 10 mile(s):0
Sky conditions: clear
Pressure (altimeter): 29.8 in. Hg (1009 hPa)
ob: KFPR 010753Z AUTO 00000KT 10SM CLR A2980 RMK AO2 SLP092
cycle: 8

Station Type Date Time Source
KFPR TAF 2022/10/01 06:30 UTC NOAA

TAF KFPR 010528Z 0106/0206 VRB03KT P6SM FEW040
FM011600 03006KT P6SM FEW030
FM011900 07009KT P6SM SKC
FM020000 VRB03KT P6SM SKC

Example: see airport list